首页
METAR-TAF:

METAR-TAF

机场 :

Beckley, 西維吉尼亞州, 美国

纬度: 37-47-42N, 经度: 081-07-29W, 海拔: 763米

当前天气观测

该预报发布于16分钟前的01:51 UTC
风速9节,风向西南
温度 12°C
湿度 47%
气压 1013 hPa
能見度: 16.1公里
少量云层高于4800英尺
多云层高于9000英尺

METAR: KBKW 120151Z AUTO 22009KT 10SM FEW048 BKN090 12/01 A2992 RMK AO2 SLP125 T01220011

时间: 21:07 (02:07 UTC)

预报

该预报发布于2小时和39分钟前的23:28 UTC
预报有效从12日的 00点(UTC)到 12日的 24点(UTC)
风速8节,风向西南
能見度: 10公里
多云层高于25000英尺
从 12日的 0400点(UTC)
风速9节,风向西转西南,有时为19节阵风
能見度: 10公里
阴天层高于1800英尺
从 12日的 0600点(UTC)
风速9节,风向西,有时为19节阵风
能見度: 4.8公里
阴天层高于800英尺
小雨
从 12日的 1000点(UTC)
风速9节,风向西北,有时为19节阵风
能見度: 3.2公里
阴天层高于1000英尺
小雪
从 12日的 1700点(UTC)
风速12节,风向西北,有时为22节阵风
能見度: 4.8公里
阴天层高于1500英尺
小雪
从 12日的 2000点(UTC)
风速12节,风向西北,有时为22节阵风
能見度: 10公里
多云层高于2000英尺
从 12日的 2300点(UTC)
风速13节,风向西北
能見度: 10公里
多云层高于2400英尺

TAF: KBKW 112328Z 1200/1224 23008KT P6SM BKN250 FM120400 25009G19KT P6SM OVC018 FM120600 28009G19KT 3SM -RA OVC008 FM121000 31009G19KT 2SM -SN OVC010 FM121700 31012G22KT 3SM -SN OVC015 FM122000 31012G22KT P6SM BKN020 FM122300 31013KT P6SM BKN024

超过4000个机场的气象观测和天气预报(METAR&TAF报告)。

可查询的气象台以黄色和红色小点在地图上表示。

将鼠标移到小点上方,可查看气象台名称。

然后点击查看天气观测和预报。

如需切换地图:点击带黑十字的绿色按钮放大地图;点击带横线的绿色按钮缩小地图;或者点击绿色箭头查看邻近地区的地图。


METAR-TAF: